sensor_id;sensor_type;location;lat;lon;timestamp;pressure;altitude;pressure_sealevel;temperature;humidity
43838;BME280;65998;46.256;7.534;2022-12-26T00:01:26;87284.97;;;5.36;100.00
43838;BME280;65998;46.256;7.534;2022-12-26T00:03:54;87292.50;;;5.38;100.00
43838;BME280;65998;46.256;7.534;2022-12-26T00:06:21;87290.47;;;5.40;100.00
43838;BME280;65998;46.256;7.534;2022-12-26T00:08:48;87287.06;;;5.40;100.00
43838;BME280;65998;46.256;7.534;2022-12-26T00:11:14;87286.47;;;5.48;100.00
43838;BME280;65998;46.256;7.534;2022-12-26T00:13:40;87278.38;;;5.54;100.00
43838;BME280;65998;46.256;7.534;2022-12-26T00:16:10;87271.56;;;5.55;100.00
43838;BME280;65998;46.256;7.534;2022-12-26T00:18:37;87281.84;;;5.60;100.00
43838;BME280;65998;46.256;7.534;2022-12-26T00:21:03;87292.09;;;5.62;100.00
43838;BME280;65998;46.256;7.534;2022-12-26T00:23:30;87294.06;;;5.55;100.00
43838;BME280;65998;46.256;7.534;2022-12-26T00:26:00;87297.44;;;5.54;100.00
43838;BME280;65998;46.256;7.534;2022-12-26T00:28:26;87299.47;;;5.51;100.00
43838;BME280;65998;46.256;7.534;2022-12-26T00:30:52;87289.28;;;5.54;100.00
43838;BME280;65998;46.256;7.534;2022-12-26T00:33:18;87287.28;;;5.58;100.00
43838;BME280;65998;46.256;7.534;2022-12-26T00:35:43;87285.94;;;5.59;100.00
43838;BME280;65998;46.256;7.534;2022-12-26T00:38:09;87292.06;;;5.60;100.00
43838;BME280;65998;46.256;7.534;2022-12-26T00:40:35;87302.25;;;5.57;100.00
43838;BME280;65998;46.256;7.534;2022-12-26T00:43:01;87300.19;;;5.54;100.00
43838;BME280;65998;46.256;7.534;2022-12-26T00:45:27;87301.41;;;5.42;100.00
43838;BME280;65998;46.256;7.534;2022-12-26T00:47:53;87301.25;;;5.30;100.00
43838;BME280;65998;46.256;7.534;2022-12-26T00:50:19;87311.28;;;5.18;100.00
43838;BME280;65998;46.256;7.534;2022-12-26T00:52:45;87297.53;;;5.09;100.00
43838;BME280;65998;46.256;7.534;2022-12-26T00:55:16;87309.13;;;5.10;100.00
43838;BME280;65998;46.256;7.534;2022-12-26T00:57:43;87305.75;;;5.11;100.00
43838;BME280;65998;46.256;7.534;2022-12-26T01:00:09;87303.69;;;5.12;100.00
43838;BME280;65998;46.256;7.534;2022-12-26T01:02:35;87301.75;;;5.19;100.00
43838;BME280;65998;46.256;7.534;2022-12-26T01:05:05;87309.91;;;5.17;100.00
43838;BME280;65998;46.256;7.534;2022-12-26T01:07:32;87303.66;;;5.08;100.00
43838;BME280;65998;46.256;7.534;2022-12-26T01:09:59;87307.00;;;5.04;100.00
43838;BME280;65998;46.256;7.534;2022-12-26T01:12:25;87309.06;;;5.06;100.00
43838;BME280;65998;46.256;7.534;2022-12-26T01:14:54;87299.44;;;4.99;100.00
43838;BME280;65998;46.256;7.534;2022-12-26T01:17:20;87295.97;;;4.94;100.00
43838;BME280;65998;46.256;7.534;2022-12-26T01:19:46;87316.88;;;4.81;100.00
43838;BME280;65998;46.256;7.534;2022-12-26T01:22:12;87316.28;;;4.87;100.00
43838;BME280;65998;46.256;7.534;2022-12-26T01:24:38;87313.00;;;4.95;100.00
43838;BME280;65998;46.256;7.534;2022-12-26T01:27:04;87320.44;;;4.92;100.00
43838;BME280;65998;46.256;7.534;2022-12-26T01:29:30;87327.38;;;5.01;100.00
43838;BME280;65998;46.256;7.534;2022-12-26T01:31:56;87323.34;;;5.04;100.00
43838;BME280;65998;46.256;7.534;2022-12-26T01:34:21;87329.41;;;4.99;100.00
43838;BME280;65998;46.256;7.534;2022-12-26T01:36:48;87329.41;;;4.99;100.00
43838;BME280;65998;46.256;7.534;2022-12-26T01:39:14;87323.22;;;4.96;100.00
43838;BME280;65998;46.256;7.534;2022-12-26T01:41:40;87332.09;;;4.97;100.00
43838;BME280;65998;46.256;7.534;2022-12-26T01:44:58;87328.00;;;4.96;100.00
43838;BME280;65998;46.256;7.534;2022-12-26T01:46:52;87323.13;;;4.88;100.00
43838;BME280;65998;46.256;7.534;2022-12-26T01:49:20;87327.81;;;4.84;100.00
43838;BME280;65998;46.256;7.534;2022-12-26T01:52:04;87318.16;;;4.74;100.00
43838;BME280;65998;46.256;7.534;2022-12-26T01:54:31;87323.59;;;4.74;100.00
43838;BME280;65998;46.256;7.534;2022-12-26T01:56:59;87321.63;;;4.79;100.00
43838;BME280;65998;46.256;7.534;2022-12-26T01:59:26;87320.16;;;4.72;100.00
43838;BME280;65998;46.256;7.534;2022-12-26T02:01:53;87332.38;;;4.71;100.00
43838;BME280;65998;46.256;7.534;2022-12-26T02:04:26;87327.03;;;4.77;100.00
43838;BME280;65998;46.256;7.534;2022-12-26T02:07:20;87338.66;;;4.81;100.00
43838;BME280;65998;46.256;7.534;2022-12-26T02:09:46;87340.69;;;4.79;100.00
43838;BME280;65998;46.256;7.534;2022-12-26T02:12:14;87346.16;;;4.81;100.00
43838;BME280;65998;46.256;7.534;2022-12-26T02:14:41;87345.56;;;4.87;100.00
43838;BME280;65998;46.256;7.534;2022-12-26T02:17:08;87346.22;;;4.85;100.00
43838;BME280;65998;46.256;7.534;2022-12-26T02:32:11;87344.75;;;4.78;100.00
43838;BME280;65998;46.256;7.534;2022-12-26T02:37:23;87350.16;;;4.76;100.00
43838;BME280;65998;46.256;7.534;2022-12-26T02:40:08;87348.09;;;4.74;100.00
43838;BME280;65998;46.256;7.534;2022-12-26T02:45:20;87345.19;;;4.62;100.00
43838;BME280;65998;46.256;7.534;2022-12-26T02:50:52;87343.19;;;4.65;100.00
43838;BME280;65998;46.256;7.534;2022-12-26T02:56:51;87349.34;;;4.67;100.00
43838;BME280;65998;46.256;7.534;2022-12-26T02:59:59;87352.00;;;4.63;100.00
43838;BME280;65998;46.256;7.534;2022-12-26T03:05:41;87343.75;;;4.59;100.00
43838;BME280;65998;46.256;7.534;2022-12-26T03:08:32;87340.44;;;4.65;100.00
43838;BME280;65998;46.256;7.534;2022-12-26T03:11:18;87347.31;;;4.68;100.00
43838;BME280;65998;46.256;7.534;2022-12-26T03:14:08;87348.78;;;4.75;100.00
43838;BME280;65998;46.256;7.534;2022-12-26T03:16:36;87341.94;;;4.72;100.00
43838;BME280;65998;46.256;7.534;2022-12-26T03:19:21;87342.50;;;4.64;100.00
43838;BME280;65998;46.256;7.534;2022-12-26T03:21:50;87339.03;;;4.62;100.00
43838;BME280;65998;46.256;7.534;2022-12-26T03:24:16;87339.72;;;4.62;100.00
43838;BME280;65998;46.256;7.534;2022-12-26T03:26:45;87337.16;;;4.72;100.00
43838;BME280;65998;46.256;7.534;2022-12-26T03:29:13;87345.84;;;4.61;100.00
43838;BME280;65998;46.256;7.534;2022-12-26T03:32:00;87341.06;;;4.61;100.00
43838;BME280;65998;46.256;7.534;2022-12-26T03:34:26;87336.38;;;4.66;100.00
43838;BME280;65998;46.256;7.534;2022-12-26T03:42:41;87331.50;;;4.58;100.00
43838;BME280;65998;46.256;7.534;2022-12-26T03:46:03;87329.56;;;4.65;100.00
43838;BME280;65998;46.256;7.534;2022-12-26T03:51:36;87337.25;;;4.78;100.00
43838;BME280;65998;46.256;7.534;2022-12-26T03:54:46;87339.22;;;4.74;100.00
43838;BME280;65998;46.256;7.534;2022-12-26T03:57:30;87336.94;;;4.58;100.00
43838;BME280;65998;46.256;7.534;2022-12-26T04:00:16;87338.19;;;4.51;100.00
43838;BME280;65998;46.256;7.534;2022-12-26T04:03:09;87347.78;;;4.54;100.00
43838;BME280;65998;46.256;7.534;2022-12-26T04:05:55;87342.34;;;4.56;100.00
43838;BME280;65998;46.256;7.534;2022-12-26T04:08:54;87351.91;;;4.57;100.00
43838;BME280;65998;46.256;7.534;2022-12-26T04:11:42;87347.13;;;4.56;100.00
43838;BME280;65998;46.256;7.534;2022-12-26T04:14:36;87349.13;;;4.53;100.00
43838;BME280;65998;46.256;7.534;2022-12-26T04:17:41;87359.81;;;4.43;100.00
43838;BME280;65998;46.256;7.534;2022-12-26T04:23:42;87345.56;;;4.44;100.00
43838;BME280;65998;46.256;7.534;2022-12-26T04:26:36;87355.06;;;4.43;100.00
43838;BME280;65998;46.256;7.534;2022-12-26T04:29:22;87348.22;;;4.40;100.00
43838;BME280;65998;46.256;7.534;2022-12-26T04:32:14;87348.19;;;4.38;100.00
43838;BME280;65998;46.256;7.534;2022-12-26T04:35:15;87348.78;;;4.33;100.00
43838;BME280;65998;46.256;7.534;2022-12-26T04:38:02;87362.28;;;4.27;100.00
43838;BME280;65998;46.256;7.534;2022-12-26T04:40:48;87347.78;;;4.16;100.00
43838;BME280;65998;46.256;7.534;2022-12-26T04:43:34;87350.50;;;4.16;100.00
43838;BME280;65998;46.256;7.534;2022-12-26T04:46:21;87341.13;;;4.23;100.00
43838;BME280;65998;46.256;7.534;2022-12-26T04:48:48;87344.53;;;4.24;100.00
43838;BME280;65998;46.256;7.534;2022-12-26T04:51:33;87348.59;;;4.23;100.00
43838;BME280;65998;46.256;7.534;2022-12-26T04:53:59;87347.94;;;4.24;100.00
43838;BME280;65998;46.256;7.534;2022-12-26T04:56:25;87338.38;;;4.21;100.00
43838;BME280;65998;46.256;7.534;2022-12-26T04:58:51;87339.03;;;4.20;100.00
43838;BME280;65998;46.256;7.534;2022-12-26T05:01:17;87338.47;;;4.27;100.00
43838;BME280;65998;46.256;7.534;2022-12-26T05:04:01;87332.38;;;4.29;100.00
43838;BME280;65998;46.256;7.534;2022-12-26T05:07:09;87337.81;;;4.29;100.00
43838;BME280;65998;46.256;7.534;2022-12-26T05:09:55;87339.22;;;4.32;100.00
43838;BME280;65998;46.256;7.534;2022-12-26T05:12:21;87336.50;;;4.32;100.00
43838;BME280;65998;46.256;7.534;2022-12-26T05:14:47;87341.97;;;4.32;100.00
43838;BME280;65998;46.256;7.534;2022-12-26T05:17:13;87335.16;;;4.33;100.00
43838;BME280;65998;46.256;7.534;2022-12-26T05:19:57;87344.50;;;4.22;100.00
43838;BME280;65998;46.256;7.534;2022-12-26T05:22:43;87337.06;;;4.24;100.00
43838;BME280;65998;46.256;7.534;2022-12-26T05:25:31;87346.03;;;4.31;100.00
43838;BME280;65998;46.256;7.534;2022-12-26T05:28:18;87339.28;;;4.34;100.00
43838;BME280;65998;46.256;7.534;2022-12-26T05:31:02;87350.16;;;4.34;100.00
43838;BME280;65998;46.256;7.534;2022-12-26T05:33:28;87361.09;;;4.38;100.00
43838;BME280;65998;46.256;7.534;2022-12-26T05:36:13;87347.31;;;4.28;100.00
43838;BME280;65998;46.256;7.534;2022-12-26T05:38:39;87354.13;;;4.27;100.00
43838;BME280;65998;46.256;7.534;2022-12-26T05:41:05;87343.38;;;4.35;100.00
43838;BME280;65998;46.256;7.534;2022-12-26T05:43:31;87337.31;;;4.38;100.00
43838;BME280;65998;46.256;7.534;2022-12-26T05:45:57;87340.63;;;4.33;100.00
43838;BME280;65998;46.256;7.534;2022-12-26T05:48:23;87344.63;;;4.30;100.00
43838;BME280;65998;46.256;7.534;2022-12-26T05:50:49;87346.59;;;4.25;100.00
43838;BME280;65998;46.256;7.534;2022-12-26T05:53:15;87353.34;;;4.22;100.00
43838;BME280;65998;46.256;7.534;2022-12-26T05:55:41;87351.31;;;4.23;100.00
43838;BME280;65998;46.256;7.534;2022-12-26T05:58:07;87359.56;;;4.27;100.00
43838;BME280;65998;46.256;7.534;2022-12-26T06:00:32;87364.31;;;4.26;100.00
43838;BME280;65998;46.256;7.534;2022-12-26T06:02:59;87364.31;;;4.26;100.00
43838;BME280;65998;46.256;7.534;2022-12-26T06:05:25;87367.75;;;4.29;100.00
43838;BME280;65998;46.256;7.534;2022-12-26T06:07:51;87367.84;;;4.35;100.00
43838;BME280;65998;46.256;7.534;2022-12-26T06:10:17;87355.63;;;4.36;100.00
43838;BME280;65998;46.256;7.534;2022-12-26T06:12:43;87354.22;;;4.33;100.00
43838;BME280;65998;46.256;7.534;2022-12-26T06:15:08;87354.88;;;4.31;100.00
43838;BME280;65998;46.256;7.534;2022-12-26T06:17:35;87357.59;;;4.31;100.00
43838;BME280;65998;46.256;7.534;2022-12-26T06:20:00;87350.03;;;4.28;100.00
43838;BME280;65998;46.256;7.534;2022-12-26T06:22:30;87351.38;;;4.27;100.00
43838;BME280;65998;46.256;7.534;2022-12-26T06:24:55;87358.88;;;4.26;100.00
43838;BME280;65998;46.256;7.534;2022-12-26T06:27:22;87347.19;;;4.20;100.00
43838;BME280;65998;46.256;7.534;2022-12-26T06:29:47;87349.94;;;4.22;100.00
43838;BME280;65998;46.256;7.534;2022-12-26T06:32:13;87354.72;;;4.23;100.00
43838;BME280;65998;46.256;7.534;2022-12-26T06:34:39;87361.38;;;4.16;100.00
43838;BME280;65998;46.256;7.534;2022-12-26T06:37:05;87352.66;;;4.22;100.00
43838;BME280;65998;46.256;7.534;2022-12-26T06:39:31;87355.44;;;4.26;100.00
43838;BME280;65998;46.256;7.534;2022-12-26T06:41:57;87353.41;;;4.26;100.00
43838;BME280;65998;46.256;7.534;2022-12-26T06:44:23;87354.13;;;4.27;100.00
43838;BME280;65998;46.256;7.534;2022-12-26T06:46:49;87359.63;;;4.31;100.00
43838;BME280;65998;46.256;7.534;2022-12-26T06:49:14;87358.06;;;4.20;100.00
43838;BME280;65998;46.256;7.534;2022-12-26T06:51:41;87354.00;;;4.21;100.00
43838;BME280;65998;46.256;7.534;2022-12-26T06:54:09;87352.13;;;4.29;100.00
43838;BME280;65998;46.256;7.534;2022-12-26T06:56:35;87347.50;;;4.38;100.00
43838;BME280;65998;46.256;7.534;2022-12-26T06:59:02;87366.50;;;4.36;100.00
43838;BME280;65998;46.256;7.534;2022-12-26T07:01:30;87361.81;;;4.40;100.00
43838;BME280;65998;46.256;7.534;2022-12-26T07:03:56;87366.69;;;4.46;100.00
43838;BME280;65998;46.256;7.534;2022-12-26T07:08:58;87373.13;;;4.25;100.00
43838;BME280;65998;46.256;7.534;2022-12-26T07:11:25;87367.84;;;4.35;100.00
43838;BME280;65998;46.256;7.534;2022-12-26T07:13:52;87360.53;;;4.43;100.00
43838;BME280;65998;46.256;7.534;2022-12-26T07:16:18;87363.97;;;4.46;100.00
43838;BME280;65998;46.256;7.534;2022-12-26T07:18:44;87370.06;;;4.44;100.00
43838;BME280;65998;46.256;7.534;2022-12-26T07:21:11;87370.78;;;4.47;100.00
43838;BME280;65998;46.256;7.534;2022-12-26T07:23:37;87371.97;;;4.38;100.00
43838;BME280;65998;46.256;7.534;2022-12-26T07:26:03;87367.19;;;4.36;100.00
43838;BME280;65998;46.256;7.534;2022-12-26T07:28:29;87380.91;;;4.42;100.00
43838;BME280;65998;46.256;7.534;2022-12-26T07:30:55;87376.84;;;4.43;100.00
43838;BME280;65998;46.256;7.534;2022-12-26T07:33:25;87379.69;;;4.52;100.00
43838;BME280;65998;46.256;7.534;2022-12-26T07:35:51;87377.78;;;4.58;100.00
43838;BME280;65998;46.256;7.534;2022-12-26T07:38:17;87384.63;;;4.61;100.00
43838;BME280;65998;46.256;7.534;2022-12-26T07:40:43;87378.47;;;4.59;100.00
43838;BME280;65998;46.256;7.534;2022-12-26T07:43:09;87390.72;;;4.60;100.00
43838;BME280;65998;46.256;7.534;2022-12-26T07:45:35;87394.09;;;4.58;100.00
43838;BME280;65998;46.256;7.534;2022-12-26T07:48:01;87407.06;;;4.60;100.00
43838;BME280;65998;46.256;7.534;2022-12-26T07:50:27;87396.31;;;4.68;100.00
43838;BME280;65998;46.256;7.534;2022-12-26T07:52:53;87399.03;;;4.68;100.00
43838;BME280;65998;46.256;7.534;2022-12-26T07:55:20;87403.16;;;4.71;100.00
43838;BME280;65998;46.256;7.534;2022-12-26T07:57:50;87397.81;;;4.77;100.00
43838;BME280;65998;46.256;7.534;2022-12-26T08:00:16;87390.25;;;4.71;100.00
43838;BME280;65998;46.256;7.534;2022-12-26T08:02:43;87408.81;;;4.83;100.00
43838;BME280;65998;46.256;7.534;2022-12-26T08:05:12;87397.75;;;4.73;100.00
43838;BME280;65998;46.256;7.534;2022-12-26T08:07:41;87406.69;;;4.79;100.00
43838;BME280;65998;46.256;7.534;2022-12-26T08:10:10;87414.94;;;4.84;100.00
43838;BME280;65998;46.256;7.534;2022-12-26T08:15:43;87415.22;;;5.02;100.00
43838;BME280;65998;46.256;7.534;2022-12-26T08:18:11;87421.50;;;5.10;100.00
43838;BME280;65998;46.256;7.534;2022-12-26T08:20:37;87418.13;;;5.12;100.00
43838;BME280;65998;46.256;7.534;2022-12-26T08:23:20;87414.91;;;5.24;100.00
43838;BME280;65998;46.256;7.534;2022-12-26T08:25:49;87426.59;;;5.30;100.00
43838;BME280;65998;46.256;7.534;2022-12-26T08:28:15;87422.50;;;5.31;100.00
43838;BME280;65998;46.256;7.534;2022-12-26T08:30:41;87433.63;;;5.45;100.00
43838;BME280;65998;46.256;7.534;2022-12-26T08:33:08;87420.16;;;5.58;100.00
43838;BME280;65998;46.256;7.534;2022-12-26T08:35:35;87421.59;;;5.63;100.00
43838;BME280;65998;46.256;7.534;2022-12-26T08:38:04;87419.25;;;5.41;100.00
43838;BME280;65998;46.256;7.534;2022-12-26T08:40:31;87420.97;;;5.66;100.00
43838;BME280;65998;46.256;7.534;2022-12-26T08:42:57;87423.19;;;5.80;100.00
43838;BME280;65998;46.256;7.534;2022-12-26T08:45:25;87425.44;;;5.94;100.00
43838;BME280;65998;46.256;7.534;2022-12-26T08:47:55;87437.06;;;5.96;100.00
43838;BME280;65998;46.256;7.534;2022-12-26T08:51:04;87410.97;;;5.83;100.00
43838;BME280;65998;46.256;7.534;2022-12-26T08:53:32;87420.09;;;6.02;100.00
43838;BME280;65998;46.256;7.534;2022-12-26T08:56:00;87425.56;;;6.04;100.00
43838;BME280;65998;46.256;7.534;2022-12-26T08:58:27;87430.31;;;6.01;100.00
43838;BME280;65998;46.256;7.534;2022-12-26T09:00:53;87426.34;;;6.11;100.00
43838;BME280;65998;46.256;7.534;2022-12-26T09:03:20;87428.44;;;6.16;100.00
43838;BME280;65998;46.256;7.534;2022-12-26T09:05:46;87440.94;;;6.31;100.00
43838;BME280;65998;46.256;7.534;2022-12-26T09:08:12;87449.94;;;6.44;100.00
43838;BME280;65998;46.256;7.534;2022-12-26T09:10:38;87449.38;;;6.54;100.00
43838;BME280;65998;46.256;7.534;2022-12-26T09:13:04;87454.28;;;6.65;100.00
43838;BME280;65998;46.256;7.534;2022-12-26T09:15:29;87448.19;;;6.71;100.00
43838;BME280;65998;46.256;7.534;2022-12-26T09:17:56;87442.84;;;6.83;100.00
43838;BME280;65998;46.256;7.534;2022-12-26T09:20:21;87452.53;;;6.94;100.00
43838;BME280;65998;46.256;7.534;2022-12-26T09:22:47;87453.97;;;7.03;93.79
43838;BME280;65998;46.256;7.534;2022-12-26T09:25:16;87449.47;;;7.30;81.89
43838;BME280;65998;46.256;7.534;2022-12-26T09:27:43;87455.72;;;7.43;75.46
43838;BME280;65998;46.256;7.534;2022-12-26T09:30:10;87468.91;;;7.67;78.20
43838;BME280;65998;46.256;7.534;2022-12-26T09:32:37;87470.28;;;7.72;68.64
43838;BME280;65998;46.256;7.534;2022-12-26T09:35:03;87457.97;;;7.71;66.23
43838;BME280;65998;46.256;7.534;2022-12-26T09:37:29;87452.59;;;7.85;70.36
43838;BME280;65998;46.256;7.534;2022-12-26T09:39:54;87445.84;;;7.96;70.18
43838;BME280;65998;46.256;7.534;2022-12-26T09:48:11;87476.09;;;8.21;75.86
43838;BME280;65998;46.256;7.534;2022-12-26T09:50:43;87469.97;;;8.28;79.84
43838;BME280;65998;46.256;7.534;2022-12-26T09:53:14;87470.81;;;8.47;85.49
43838;BME280;65998;46.256;7.534;2022-12-26T09:58:30;87480.81;;;8.12;82.34
43838;BME280;65998;46.256;7.534;2022-12-26T10:03:41;87479.53;;;8.25;100.00
43838;BME280;65998;46.256;7.534;2022-12-26T10:06:18;87480.13;;;8.08;85.32
43838;BME280;65998;46.256;7.534;2022-12-26T10:24:54;87487.91;;;8.44;98.34
43838;BME280;65998;46.256;7.534;2022-12-26T10:27:21;87485.81;;;8.40;83.19
43838;BME280;65998;46.256;7.534;2022-12-26T10:29:52;87489.97;;;8.49;91.71
43838;BME280;65998;46.256;7.534;2022-12-26T10:34:52;87487.91;;;8.46;88.40
43838;BME280;65998;46.256;7.534;2022-12-26T10:37:23;87497.56;;;8.61;90.77
43838;BME280;65998;46.256;7.534;2022-12-26T10:39:52;87492.72;;;8.51;79.30
43838;BME280;65998;46.256;7.534;2022-12-26T10:47:43;87499.09;;;8.96;78.50
43838;BME280;65998;46.256;7.534;2022-12-26T10:53:50;87504.53;;;8.86;77.50
43838;BME280;65998;46.256;7.534;2022-12-26T10:59:46;87512.09;;;8.98;85.93
43838;BME280;65998;46.256;7.534;2022-12-26T11:02:23;87509.38;;;9.00;82.24
43838;BME280;65998;46.256;7.534;2022-12-26T11:05:16;87512.81;;;9.05;87.94
43838;BME280;65998;46.256;7.534;2022-12-26T11:08:55;87508.00;;;8.97;75.50
43838;BME280;65998;46.256;7.534;2022-12-26T11:11:25;87516.25;;;9.07;87.48
43838;BME280;65998;46.256;7.534;2022-12-26T11:13:52;87519.00;;;9.11;92.45
43838;BME280;65998;46.256;7.534;2022-12-26T11:16:47;87516.94;;;9.12;87.23
43838;BME280;65998;46.256;7.534;2022-12-26T11:19:37;87511.47;;;9.10;85.69
43838;BME280;65998;46.256;7.534;2022-12-26T11:25:05;87497.06;;;9.11;89.43
43838;BME280;65998;46.256;7.534;2022-12-26T11:27:50;87520.31;;;8.98;91.75
43838;BME280;65998;46.256;7.534;2022-12-26T11:30:18;87507.28;;;8.90;88.41
43838;BME280;65998;46.256;7.534;2022-12-26T11:44:43;87495.50;;;8.55;85.47
43838;BME280;65998;46.256;7.534;2022-12-26T11:51:06;87479.75;;;8.60;88.67
43838;BME280;65998;46.256;7.534;2022-12-26T11:53:45;87482.50;;;8.64;82.87
43838;BME280;65998;46.256;7.534;2022-12-26T12:59:16;87433.31;;;9.07;97.54
43838;BME280;65998;46.256;7.534;2022-12-26T13:01:47;87429.22;;;9.14;95.54
43838;BME280;65998;46.256;7.534;2022-12-26T13:04:33;87428.53;;;9.17;94.40
43838;BME280;65998;46.256;7.534;2022-12-26T13:18:01;87433.28;;;8.94;95.92
43838;BME280;65998;46.256;7.534;2022-12-26T13:20:58;87440.16;;;9.04;99.00
43838;BME280;65998;46.256;7.534;2022-12-26T13:23:37;87438.09;;;8.94;99.13
43838;BME280;65998;46.256;7.534;2022-12-26T13:26:28;87440.09;;;8.79;100.00
43838;BME280;65998;46.256;7.534;2022-12-26T13:32:12;87435.97;;;8.74;100.00
43838;BME280;65998;46.256;7.534;2022-12-26T13:44:55;87433.72;;;8.32;100.00
43838;BME280;65998;46.256;7.534;2022-12-26T13:55:30;87426.75;;;8.07;100.00
43838;BME280;65998;46.256;7.534;2022-12-26T13:58:05;87424.69;;;8.05;100.00
43838;BME280;65998;46.256;7.534;2022-12-26T14:00:40;87431.47;;;7.94;100.00
43838;BME280;65998;46.256;7.534;2022-12-26T14:03:16;87434.84;;;7.88;100.00
43838;BME280;65998;46.256;7.534;2022-12-26T14:12:47;87439.75;;;8.10;100.00
43838;BME280;65998;46.256;7.534;2022-12-26T14:31:54;87428.31;;;8.36;100.00
43838;BME280;65998;46.256;7.534;2022-12-26T16:14:03;87456.44;;;23.43;63.71
43838;BME280;65998;46.256;7.534;2022-12-26T16:16:34;87457.47;;;23.80;69.15
43838;BME280;65998;46.256;7.534;2022-12-26T16:19:43;87464.69;;;24.04;69.79
43838;BME280;65998;46.256;7.534;2022-12-26T16:22:01;87458.38;;;23.62;76.24
43838;BME280;65998;46.256;7.534;2022-12-26T16:24:48;87452.00;;;23.19;74.83
43838;BME280;65998;46.256;7.534;2022-12-26T16:27:18;87460.31;;;22.91;72.25
43838;BME280;65998;46.256;7.534;2022-12-26T16:30:17;87451.13;;;22.61;68.06
43838;BME280;65998;46.256;7.534;2022-12-26T16:32:44;87456.75;;;22.30;67.10
43838;BME280;65998;46.256;7.534;2022-12-26T16:35:18;87456.97;;;22.09;65.54
43838;BME280;65998;46.256;7.534;2022-12-26T16:37:45;87459.09;;;21.92;65.76
43838;BME280;65998;46.256;7.534;2022-12-26T16:46:55;87444.84;;;21.81;65.36
43838;BME280;65998;46.256;7.534;2022-12-26T16:49:21;87451.53;;;21.72;64.63
43838;BME280;65998;46.256;7.534;2022-12-26T16:51:50;87458.16;;;21.64;64.34
43838;BME280;65998;46.256;7.534;2022-12-26T16:56:49;87458.50;;;21.56;65.41
43838;BME280;65998;46.256;7.534;2022-12-26T17:01:52;87444.53;;;21.56;64.17
43838;BME280;65998;46.256;7.534;2022-12-26T17:04:20;87446.91;;;21.49;63.62
43838;BME280;65998;46.256;7.534;2022-12-26T17:07:04;87451.97;;;21.45;62.97
43838;BME280;65998;46.256;7.534;2022-12-26T17:09:38;87447.31;;;21.39;63.15
43838;BME280;65998;46.256;7.534;2022-12-26T17:12:30;87458.06;;;21.32;62.88
43838;BME280;65998;46.256;7.534;2022-12-26T17:14:57;87462.97;;;21.32;62.83
43838;BME280;65998;46.256;7.534;2022-12-26T17:17:26;87462.00;;;21.21;61.95
43838;BME280;65998;46.256;7.534;2022-12-26T17:19:54;87474.28;;;21.11;61.75
43838;BME280;65998;46.256;7.534;2022-12-26T17:22:25;87466.31;;;21.01;61.31
43838;BME280;65998;46.256;7.534;2022-12-26T17:25:12;87465.78;;;20.96;61.43
43838;BME280;65998;46.256;7.534;2022-12-26T17:27:38;87466.09;;;20.88;61.52
43838;BME280;65998;46.256;7.534;2022-12-26T17:30:19;87476.59;;;20.88;62.67
43838;BME280;65998;46.256;7.534;2022-12-26T17:37:43;87460.81;;;20.80;64.95
43838;BME280;65998;46.256;7.534;2022-12-26T17:42:43;87475.84;;;20.70;65.13
43838;BME280;65998;46.256;7.534;2022-12-26T17:45:19;87471.94;;;20.63;65.56
43838;BME280;65998;46.256;7.534;2022-12-26T17:47:45;87470.13;;;20.56;65.69
43838;BME280;65998;46.256;7.534;2022-12-26T17:50:11;87475.25;;;20.49;65.37
43838;BME280;65998;46.256;7.534;2022-12-26T17:52:38;87478.28;;;20.43;64.95
43838;BME280;65998;46.256;7.534;2022-12-26T17:55:05;87473.56;;;20.37;64.43
43838;BME280;65998;46.256;7.534;2022-12-26T17:57:36;87466.72;;;20.34;63.91
43838;BME280;65998;46.256;7.534;2022-12-26T18:00:05;87456.47;;;20.29;64.25
43838;BME280;65998;46.256;7.534;2022-12-26T18:02:32;87460.75;;;20.26;64.14
43838;BME280;65998;46.256;7.534;2022-12-26T18:04:59;87461.59;;;20.22;64.50
43838;BME280;65998;46.256;7.534;2022-12-26T18:07:24;87464.53;;;20.18;64.19
43838;BME280;65998;46.256;7.534;2022-12-26T18:09:50;87459.09;;;20.14;63.46
43838;BME280;65998;46.256;7.534;2022-12-26T18:12:17;87462.03;;;20.10;63.26
43838;BME280;65998;46.256;7.534;2022-12-26T18:14:43;87464.97;;;20.06;63.09
43838;BME280;65998;46.256;7.534;2022-12-26T18:17:12;87464.44;;;20.01;62.84
43838;BME280;65998;46.256;7.534;2022-12-26T18:19:41;87467.31;;;19.99;62.52
43838;BME280;65998;46.256;7.534;2022-12-26T18:22:14;87465.41;;;19.94;62.45
43838;BME280;65998;46.256;7.534;2022-12-26T18:24:40;87462.09;;;19.89;62.42
43838;BME280;65998;46.256;7.534;2022-12-26T18:27:08;87463.66;;;19.84;62.51
43838;BME280;65998;46.256;7.534;2022-12-26T18:29:37;87473.53;;;19.81;62.53
43838;BME280;65998;46.256;7.534;2022-12-26T18:32:09;87491.63;;;19.82;62.29
43838;BME280;65998;46.256;7.534;2022-12-26T18:34:37;87494.47;;;19.80;61.91
43838;BME280;65998;46.256;7.534;2022-12-26T18:37:02;87496.78;;;19.73;62.01
43838;BME280;65998;46.256;7.534;2022-12-26T18:39:28;87494.81;;;19.70;62.01
43838;BME280;65998;46.256;7.534;2022-12-26T18:41:54;87486.44;;;19.70;61.33
43838;BME280;65998;46.256;7.534;2022-12-26T18:44:20;87500.59;;;19.64;61.83
43838;BME280;65998;46.256;7.534;2022-12-26T18:46:46;87494.47;;;19.59;61.74
43838;BME280;65998;46.256;7.534;2022-12-26T18:49:16;87491.81;;;19.55;61.51
43838;BME280;65998;46.256;7.534;2022-12-26T18:51:43;87500.25;;;19.53;61.42
43838;BME280;65998;46.256;7.534;2022-12-26T18:54:09;87502.47;;;19.49;61.29
43838;BME280;65998;46.256;7.534;2022-12-26T18:56:35;87509.53;;;19.45;61.27
43838;BME280;65998;46.256;7.534;2022-12-26T18:59:01;87527.75;;;19.42;61.39
43838;BME280;65998;46.256;7.534;2022-12-26T19:01:26;87527.91;;;19.38;61.43
43838;BME280;65998;46.256;7.534;2022-12-26T19:03:53;87531.44;;;19.37;61.13
43838;BME280;65998;46.256;7.534;2022-12-26T19:06:21;87533.59;;;19.34;61.31
43838;BME280;65998;46.256;7.534;2022-12-26T19:08:47;87535.78;;;19.32;61.17
43838;BME280;65998;46.256;7.534;2022-12-26T19:11:13;87540.00;;;19.31;60.86